createdAt,value
2022-08-22T00:01:52.457Z,2.30
2022-08-22T00:02:58.682Z,2.30
2022-08-22T00:03:01.016Z,2.17
2022-08-22T00:03:03.715Z,1.42
2022-08-22T00:03:12.734Z,2.67
2022-08-22T00:04:29.567Z,2.07
2022-08-22T00:07:08.366Z,2.27
2022-08-22T00:09:48.167Z,1.97
2022-08-22T00:12:22.613Z,2.47
2022-08-22T00:15:02.381Z,2.30
2022-08-22T00:17:40.922Z,2.43
2022-08-22T00:20:14.422Z,2.40
2022-08-22T00:22:51.890Z,2.23
2022-08-22T00:25:45.407Z,1.90
2022-08-22T00:28:20.200Z,2.10
2022-08-22T00:30:55.404Z,2.10
2022-08-22T00:33:35.153Z,2.40
2022-08-22T00:36:17.516Z,3.00
2022-08-22T00:38:49.823Z,2.80
2022-08-22T00:41:37.906Z,2.30
2022-08-22T00:44:41.980Z,2.07
2022-08-22T00:47:37.340Z,2.60
2022-08-22T00:50:28.534Z,1.87
2022-08-22T00:53:25.544Z,2.87
2022-08-22T00:56:08.342Z,2.90
2022-08-22T00:59:01.219Z,2.17
2022-08-22T01:01:58.998Z,2.27
2022-08-22T01:04:49.935Z,2.40
2022-08-22T01:07:38.300Z,2.20
2022-08-22T01:10:27.514Z,2.17
2022-08-22T01:13:20.439Z,2.10
2022-08-22T01:15:55.286Z,2.40
2022-08-22T01:18:58.841Z,2.23
2022-08-22T01:22:20.121Z,1.90
2022-08-22T01:25:39.821Z,2.67
2022-08-22T01:29:02.047Z,2.03
2022-08-22T01:32:05.643Z,2.43
2022-08-22T01:35:20.461Z,2.10
2022-08-22T01:38:32.523Z,2.03
2022-08-22T01:41:24.807Z,1.90
2022-08-22T01:44:18.098Z,2.57
2022-08-22T01:46:55.380Z,2.40
2022-08-22T01:49:30.110Z,1.97
2022-08-22T01:52:06.744Z,2.30
2022-08-22T01:54:45.908Z,2.07
2022-08-22T01:57:18.730Z,1.97
2022-08-22T01:59:50.074Z,2.10
2022-08-22T02:02:35.851Z,2.37
2022-08-22T02:05:10.346Z,2.03
2022-08-22T02:07:49.121Z,2.80
2022-08-22T02:10:22.207Z,2.07
2022-08-22T02:13:00.922Z,2.00
2022-08-22T02:15:45.110Z,2.33
2022-08-22T02:18:21.893Z,1.97
2022-08-22T02:21:00.106Z,2.40
2022-08-22T02:23:45.570Z,2.10
2022-08-22T02:26:22.076Z,2.40
2022-08-22T02:28:58.066Z,2.30
2022-08-22T02:31:38.155Z,2.30
2022-08-22T02:34:24.250Z,2.03
2022-08-22T02:36:58.256Z,2.37
2022-08-22T02:39:36.791Z,2.40
2022-08-22T02:42:18.310Z,2.30
2022-08-22T02:44:57.195Z,2.17
2022-08-22T02:47:34.511Z,2.63
2022-08-22T02:50:12.941Z,2.07
2022-08-22T02:52:57.186Z,2.50
2022-08-22T02:55:43.689Z,2.40
2022-08-22T02:58:21.005Z,2.20
2022-08-22T03:00:52.809Z,2.30
2022-08-22T03:03:28.790Z,2.33
2022-08-22T03:06:02.273Z,1.93
2022-08-22T03:08:34.475Z,2.00
2022-08-22T03:11:16.968Z,1.93
2022-08-22T03:13:57.022Z,2.17
2022-08-22T03:16:33.913Z,1.97
2022-08-22T03:19:08.454Z,1.90
2022-08-22T03:21:53.451Z,2.33
2022-08-22T03:24:33.303Z,2.20
2022-08-22T03:27:08.873Z,1.97
2022-08-22T03:29:39.573Z,2.40
2022-08-22T03:32:15.843Z,2.37
2022-08-22T03:34:57.482Z,2.73
2022-08-22T03:37:37.491Z,2.40
2022-08-22T03:40:22.829Z,2.60
2022-08-22T03:43:12.767Z,2.10
2022-08-22T03:46:18.283Z,2.10
2022-08-22T03:49:22.758Z,2.27
2022-08-22T03:52:07.737Z,2.23
2022-08-22T03:55:08.454Z,2.17
2022-08-22T03:58:17.160Z,1.87
2022-08-22T04:01:22.858Z,2.37
2022-08-22T04:04:22.556Z,2.20
2022-08-22T04:07:28.289Z,1.73
2022-08-22T04:10:27.751Z,2.13
2022-08-22T04:13:31.335Z,2.07
2022-08-22T04:16:29.901Z,2.20
2022-08-22T04:19:15.972Z,1.70
2022-08-22T04:22:12.142Z,2.17
2022-08-22T04:25:07.595Z,1.80
2022-08-22T04:27:42.207Z,2.37
2022-08-22T04:30:22.936Z,1.93
2022-08-22T04:32:58.217Z,2.60
2022-08-22T04:35:32.610Z,3.00
2022-08-22T04:38:05.653Z,3.00
2022-08-22T04:40:39.581Z,3.17
2022-08-22T04:43:15.744Z,2.90
2022-08-22T04:45:52.974Z,3.10
2022-08-22T04:48:30.394Z,2.77
2022-08-22T04:51:03.136Z,2.43
2022-08-22T04:53:57.375Z,2.80
2022-08-22T04:56:34.472Z,2.30
2022-08-22T04:59:10.311Z,2.60
2022-08-22T05:01:47.326Z,3.07
2022-08-22T05:04:23.071Z,2.83
2022-08-22T05:06:55.338Z,2.57
2022-08-22T05:09:29.965Z,2.80
2022-08-22T05:12:04.999Z,2.23
2022-08-22T05:14:39.434Z,2.47
2022-08-22T05:17:16.967Z,2.53
2022-08-22T05:19:50.649Z,2.53
2022-08-22T05:22:24.614Z,2.90
2022-08-22T05:24:57.191Z,2.17
2022-08-22T05:27:27.795Z,2.60
2022-08-22T05:30:02.142Z,2.47
2022-08-22T05:32:40.863Z,2.50
2022-08-22T05:35:10.605Z,2.17
2022-08-22T05:37:45.813Z,2.70
2022-08-22T05:40:21.453Z,2.07
2022-08-22T05:42:49.998Z,2.37
2022-08-22T05:45:20.143Z,2.43
2022-08-22T05:47:53.578Z,2.63
2022-08-22T05:50:35.614Z,2.50
2022-08-22T05:53:10.333Z,2.13
2022-08-22T05:55:47.635Z,2.80
2022-08-22T05:58:38.027Z,2.90
2022-08-22T06:01:22.171Z,3.00
2022-08-22T06:04:00.284Z,3.77
2022-08-22T06:06:30.649Z,3.50
2022-08-22T06:09:04.026Z,3.00
2022-08-22T06:11:40.295Z,3.70
2022-08-22T06:14:14.951Z,3.70
2022-08-22T06:16:48.902Z,3.40
2022-08-22T06:19:20.754Z,3.60
2022-08-22T06:21:51.724Z,3.27
2022-08-22T06:24:25.174Z,4.20
2022-08-22T06:26:58.158Z,3.70
2022-08-22T06:29:35.080Z,3.40
2022-08-22T06:32:14.279Z,3.63
2022-08-22T06:34:47.397Z,3.83
2022-08-22T06:37:24.164Z,3.70
2022-08-22T06:39:55.701Z,3.80
2022-08-22T06:42:28.243Z,3.97
2022-08-22T06:45:02.841Z,4.30
2022-08-22T06:47:37.851Z,4.10
2022-08-22T06:50:16.548Z,4.27
2022-08-22T06:52:54.787Z,3.27
2022-08-22T06:55:27.327Z,3.33
2022-08-22T06:57:58.774Z,3.17
2022-08-22T07:00:29.328Z,3.80
2022-08-22T07:03:01.565Z,3.00
2022-08-22T07:05:36.945Z,3.57
2022-08-22T07:08:10.001Z,3.10
2022-08-22T07:10:42.334Z,3.20
2022-08-22T07:13:16.029Z,3.30
2022-08-22T07:15:44.989Z,3.00
2022-08-22T07:18:19.872Z,2.90
2022-08-22T07:20:55.032Z,2.90
2022-08-22T07:23:32.598Z,3.83
2022-08-22T07:26:18.657Z,3.20
2022-08-22T07:28:58.570Z,3.00
2022-08-22T07:31:35.122Z,3.63
2022-08-22T07:34:23.148Z,3.27
2022-08-22T07:37:00.458Z,2.70
2022-08-22T07:39:33.967Z,3.33
2022-08-22T07:42:10.426Z,2.70
2022-08-22T07:45:05.213Z,2.80
2022-08-22T07:47:49.186Z,3.57
2022-08-22T07:50:25.331Z,3.73
2022-08-22T07:52:59.837Z,3.83
2022-08-22T07:55:28.628Z,3.53
2022-08-22T07:58:00.686Z,3.73
2022-08-22T08:00:30.030Z,2.97
2022-08-22T08:03:05.747Z,3.00
2022-08-22T08:05:39.154Z,3.33
2022-08-22T08:08:19.868Z,3.70
2022-08-22T08:10:51.284Z,3.50
2022-08-22T08:13:25.661Z,3.30
2022-08-22T08:15:54.545Z,3.33
2022-08-22T08:18:25.984Z,3.53
2022-08-22T08:20:58.699Z,3.13
2022-08-22T08:23:31.511Z,3.73
2022-08-22T08:26:06.192Z,3.13
2022-08-22T08:28:40.819Z,2.83
2022-08-22T08:31:21.895Z,3.00
2022-08-22T08:33:54.411Z,2.80
2022-08-22T08:36:36.857Z,3.77
2022-08-22T08:39:14.487Z,3.73
2022-08-22T08:42:23.286Z,3.10
2022-08-22T08:45:18.993Z,3.83
2022-08-22T08:48:24.251Z,3.50
2022-08-22T08:51:09.821Z,2.77
2022-08-22T08:53:58.534Z,2.57
2022-08-22T08:56:36.918Z,3.10
2022-08-22T08:59:19.114Z,3.00
2022-08-22T09:02:13.713Z,3.27
2022-08-22T09:05:21.621Z,3.40
2022-08-22T09:08:11.997Z,3.77
2022-08-22T09:11:12.064Z,3.33
2022-08-22T09:13:55.674Z,3.40
2022-08-22T09:16:46.261Z,3.40
2022-08-22T09:19:56.493Z,3.63
2022-08-22T09:22:50.743Z,3.42
2022-08-22T09:25:24.924Z,3.22
2022-08-22T09:28:00.960Z,3.28
2022-08-22T09:30:56.716Z,2.63
2022-08-22T09:33:36.400Z,2.47
2022-08-22T09:36:12.674Z,2.90
2022-08-22T09:38:50.864Z,2.33
2022-08-22T09:41:33.742Z,2.80
2022-08-22T09:44:13.296Z,2.75
2022-08-22T09:46:56.286Z,2.90
2022-08-22T09:49:34.859Z,2.60
2022-08-22T09:52:31.981Z,3.03
2022-08-22T09:55:11.803Z,2.75
2022-08-22T09:57:52.014Z,2.55
2022-08-22T10:00:32.453Z,2.47
2022-08-22T10:03:12.288Z,3.22
2022-08-22T10:05:48.220Z,2.75
2022-08-22T10:08:45.759Z,2.63
2022-08-22T10:11:24.579Z,3.10
2022-08-22T10:14:01.167Z,3.30
2022-08-22T10:16:52.158Z,3.03
2022-08-22T10:19:29.648Z,2.95
2022-08-22T10:22:22.311Z,2.72
2022-08-22T10:25:01.316Z,2.35
2022-08-22T10:27:44.794Z,2.45
2022-08-22T10:30:18.041Z,3.35
2022-08-22T10:32:58.669Z,2.40
2022-08-22T10:35:33.912Z,3.20
2022-08-22T10:38:11.104Z,3.30
2022-08-22T10:40:49.270Z,3.15
2022-08-22T10:43:28.735Z,2.80
2022-08-22T10:46:04.179Z,2.65
2022-08-22T10:48:47.859Z,3.13
2022-08-22T10:51:30.201Z,2.85
2022-08-22T10:54:19.952Z,3.25
2022-08-22T10:56:56.553Z,2.72
2022-08-22T10:59:40.329Z,2.60
2022-08-22T11:02:39.476Z,2.92
2022-08-22T11:05:24.640Z,2.03
2022-08-22T11:08:06.413Z,2.13
2022-08-22T11:10:52.296Z,2.38
2022-08-22T11:13:28.989Z,2.38
2022-08-22T11:16:04.292Z,2.55
2022-08-22T11:19:01.908Z,2.25
2022-08-22T11:21:45.852Z,2.05
2022-08-22T11:25:07.741Z,1.88
2022-08-22T11:27:48.653Z,2.15
2022-08-22T11:30:21.792Z,1.98
2022-08-22T11:33:14.614Z,2.47
2022-08-22T11:35:45.514Z,2.00
2022-08-22T11:38:32.083Z,1.80
2022-08-22T11:41:10.519Z,1.90
2022-08-22T11:43:48.870Z,1.60
2022-08-22T11:46:26.079Z,1.77
2022-08-22T11:49:07.581Z,1.85
2022-08-22T11:52:10.569Z,1.83
2022-08-22T11:55:07.106Z,1.50
2022-08-22T11:57:44.937Z,1.65
2022-08-22T12:00:26.315Z,1.77
2022-08-22T12:03:30.332Z,2.00
2022-08-22T12:06:06.128Z,1.95
2022-08-22T12:09:20.070Z,2.20
2022-08-22T12:12:09.211Z,1.65
2022-08-22T12:14:43.702Z,1.60
2022-08-22T12:17:51.033Z,1.35
2022-08-22T12:20:45.343Z,1.65
2022-08-22T12:23:49.269Z,1.58
2022-08-22T12:26:30.877Z,1.63
2022-08-22T12:29:17.061Z,1.40
2022-08-22T12:32:34.015Z,1.25
2022-08-22T12:35:30.002Z,1.65
2022-08-22T12:38:28.798Z,1.70
2022-08-22T12:41:40.043Z,1.48
2022-08-22T12:44:28.307Z,1.40
2022-08-22T12:47:11.254Z,1.75
2022-08-22T12:49:56.535Z,1.38
2022-08-22T12:52:45.716Z,1.60
2022-08-22T12:55:27.411Z,1.70
2022-08-22T12:58:07.815Z,1.75
2022-08-22T13:00:40.265Z,2.38
2022-08-22T13:03:22.299Z,1.70
2022-08-22T13:05:59.155Z,1.40
2022-08-22T13:08:32.289Z,1.92
2022-08-22T13:11:03.141Z,1.35
2022-08-22T13:13:40.881Z,1.63
2022-08-22T13:16:12.018Z,1.70
2022-08-22T13:18:53.476Z,1.58
2022-08-22T13:21:31.840Z,2.25
2022-08-22T13:24:10.797Z,1.83
2022-08-22T13:26:49.494Z,1.67
2022-08-22T13:29:26.115Z,1.35
2022-08-22T13:32:01.498Z,1.52
2022-08-22T13:34:40.562Z,1.63
2022-08-22T13:37:16.701Z,1.77
2022-08-22T13:39:48.967Z,2.08
2022-08-22T13:42:27.813Z,2.10
2022-08-22T13:45:04.285Z,2.00
2022-08-22T13:47:39.497Z,1.50
2022-08-22T13:50:15.003Z,1.70
2022-08-22T13:52:52.432Z,1.95
2022-08-22T13:55:30.805Z,1.92
2022-08-22T13:58:06.760Z,1.80
2022-08-22T14:01:28.287Z,2.05
2022-08-22T14:04:00.045Z,1.90
2022-08-22T14:06:38.342Z,1.85
2022-08-22T14:09:17.361Z,1.80
2022-08-22T14:12:12.104Z,1.83
2022-08-22T14:14:46.009Z,1.98
2022-08-22T14:17:20.970Z,1.80
2022-08-22T14:19:59.643Z,1.58
2022-08-22T14:22:36.845Z,1.73
2022-08-22T14:25:10.941Z,1.55
2022-08-22T14:27:43.927Z,1.75
2022-08-22T14:30:17.008Z,1.80
2022-08-22T14:32:51.394Z,2.15
2022-08-22T14:35:35.099Z,1.70
2022-08-22T14:38:27.423Z,2.20
2022-08-22T14:41:03.172Z,1.30
2022-08-22T14:43:52.955Z,1.55
2022-08-22T14:46:26.932Z,1.75
2022-08-22T14:49:25.318Z,2.08
2022-08-22T14:52:01.207Z,1.90
2022-08-22T14:54:34.519Z,1.80
2022-08-22T14:57:10.418Z,1.95
2022-08-22T14:59:50.156Z,1.65
2022-08-22T15:02:26.188Z,1.90
2022-08-22T15:05:01.471Z,2.00
2022-08-22T15:07:33.364Z,2.00
2022-08-22T15:10:11.998Z,2.08
2022-08-22T15:12:49.847Z,1.80
2022-08-22T15:15:32.567Z,1.92
2022-08-22T15:18:18.297Z,2.10
2022-08-22T15:20:52.079Z,1.58
2022-08-22T15:23:24.492Z,2.00
2022-08-22T15:26:03.830Z,1.88
2022-08-22T15:28:52.277Z,2.20
2022-08-22T15:31:22.845Z,1.60
2022-08-22T15:33:53.995Z,1.80
2022-08-22T15:36:27.128Z,1.70
2022-08-22T15:39:18.832Z,1.83
2022-08-22T15:41:51.615Z,2.00
2022-08-22T15:44:32.934Z,2.13
2022-08-22T15:47:24.115Z,1.90
2022-08-22T15:49:58.842Z,1.60
2022-08-22T15:52:30.695Z,1.80
2022-08-22T15:55:29.356Z,1.73
2022-08-22T15:58:05.621Z,1.75
2022-08-22T16:00:43.777Z,1.90
2022-08-22T16:03:24.564Z,1.85
2022-08-22T16:05:58.837Z,1.63
2022-08-22T16:08:32.831Z,1.30
2022-08-22T16:11:32.994Z,2.10
2022-08-22T16:14:22.347Z,1.65
2022-08-22T16:16:58.252Z,2.17
2022-08-22T16:19:28.628Z,1.70
2022-08-22T16:22:14.147Z,2.10
2022-08-22T16:25:10.716Z,1.90
2022-08-22T16:27:57.237Z,1.90
2022-08-22T16:30:36.889Z,1.67
2022-08-22T16:33:07.028Z,1.52
2022-08-22T16:36:24.213Z,1.38
2022-08-22T16:38:56.395Z,1.85
2022-08-22T16:41:32.298Z,1.65
2022-08-22T16:44:41.401Z,1.67
2022-08-22T16:47:17.959Z,1.80
2022-08-22T16:50:09.175Z,1.73
2022-08-22T16:52:53.722Z,1.83
2022-08-22T16:56:04.345Z,2.35
2022-08-22T16:59:19.304Z,1.45
2022-08-22T17:02:12.435Z,1.60
2022-08-22T17:04:55.147Z,2.05
2022-08-22T17:07:36.479Z,1.65
2022-08-22T17:10:36.449Z,1.77
2022-08-22T17:13:18.402Z,1.48
2022-08-22T17:16:02.786Z,1.40
2022-08-22T17:18:48.427Z,1.65
2022-08-22T17:21:26.143Z,1.90
2022-08-22T17:24:06.883Z,2.00
2022-08-22T17:26:56.491Z,1.50
2022-08-22T17:29:41.912Z,1.50
2022-08-22T17:32:18.056Z,1.65
2022-08-22T17:35:00.077Z,1.85
2022-08-22T17:37:44.834Z,1.73
2022-08-22T17:40:29.545Z,1.90
2022-08-22T17:43:33.468Z,1.70
2022-08-22T17:46:41.217Z,1.83
2022-08-22T17:49:25.401Z,1.80
2022-08-22T17:52:00.760Z,1.73
2022-08-22T17:54:40.339Z,1.90
2022-08-22T17:57:13.214Z,1.75
2022-08-22T17:59:50.642Z,1.58
2022-08-22T18:02:27.957Z,1.98
2022-08-22T18:05:04.194Z,1.73
2022-08-22T18:07:50.169Z,1.88
2022-08-22T18:10:31.906Z,1.90
2022-08-22T18:13:08.890Z,1.92
2022-08-22T18:15:45.743Z,1.58
2022-08-22T18:18:26.988Z,1.90
2022-08-22T18:21:07.860Z,1.63
2022-08-22T18:23:40.822Z,1.80
2022-08-22T18:26:24.687Z,1.75
2022-08-22T18:29:01.289Z,1.67
2022-08-22T18:31:47.487Z,1.77
2022-08-22T18:34:26.539Z,2.10
2022-08-22T18:37:02.935Z,1.70
2022-08-22T18:39:43.199Z,1.70
2022-08-22T18:42:29.210Z,1.63
2022-08-22T18:44:57.795Z,1.70
2022-08-22T18:47:32.641Z,1.52
2022-08-22T18:50:29.674Z,1.60
2022-08-22T18:53:01.149Z,1.67
2022-08-22T18:55:46.670Z,1.25
2022-08-22T18:58:58.928Z,2.00
2022-08-22T19:01:48.598Z,1.80
2022-08-22T19:04:55.761Z,2.25
2022-08-22T19:07:45.293Z,1.50
2022-08-22T19:10:41.548Z,1.77
2022-08-22T19:13:45.753Z,1.35
2022-08-22T19:16:32.919Z,1.55
2022-08-22T19:19:04.467Z,1.45
2022-08-22T19:22:06.135Z,1.88
2022-08-22T19:24:57.988Z,1.48
2022-08-22T19:27:31.536Z,1.60
2022-08-22T19:30:07.160Z,1.77
2022-08-22T19:33:12.172Z,1.58
2022-08-22T19:36:02.680Z,1.35
2022-08-22T19:38:57.783Z,1.98
2022-08-22T19:41:47.173Z,1.88
2022-08-22T19:44:37.596Z,1.60
2022-08-22T19:47:36.080Z,1.70
2022-08-22T19:50:13.862Z,1.30
2022-08-22T19:52:56.668Z,1.40
2022-08-22T19:55:34.285Z,1.70
2022-08-22T19:58:16.665Z,1.85
2022-08-22T20:00:54.546Z,1.80
2022-08-22T20:03:37.524Z,1.80
2022-08-22T20:06:33.556Z,1.70
2022-08-22T20:09:22.410Z,1.77
2022-08-22T20:12:05.130Z,1.60
2022-08-22T20:14:38.346Z,1.80
2022-08-22T20:17:13.261Z,1.98
2022-08-22T20:22:46.566Z,1.60
2022-08-22T20:25:43.061Z,1.60
2022-08-22T20:28:32.196Z,2.03
2022-08-22T20:31:03.314Z,1.65
2022-08-22T20:33:36.278Z,1.73
2022-08-22T20:36:28.168Z,1.63
2022-08-22T20:39:01.537Z,1.73
2022-08-22T20:41:35.459Z,1.80
2022-08-22T20:44:12.242Z,1.85
2022-08-22T20:46:53.849Z,1.50
2022-08-22T20:49:29.348Z,1.50
2022-08-22T20:52:06.993Z,1.83
2022-08-22T20:54:38.700Z,1.42
2022-08-22T20:57:16.019Z,1.90
2022-08-22T20:59:53.456Z,1.85
2022-08-22T21:02:28.522Z,1.77
2022-08-22T21:05:02.086Z,1.45
2022-08-22T21:07:34.062Z,1.75
2022-08-22T21:10:24.812Z,1.65
2022-08-22T21:13:05.152Z,1.40
2022-08-22T21:15:48.299Z,1.30
2022-08-22T21:18:27.875Z,1.67
2022-08-22T21:21:17.070Z,1.83
2022-08-22T21:23:51.824Z,1.85
2022-08-22T21:26:25.126Z,1.50
2022-08-22T21:28:59.971Z,1.77
2022-08-22T21:31:32.284Z,1.73
2022-08-22T21:34:05.753Z,1.50
2022-08-22T21:36:39.494Z,1.90
2022-08-22T21:39:20.570Z,1.80
2022-08-22T21:41:52.497Z,1.60
2022-08-22T21:44:29.618Z,1.63
2022-08-22T21:46:58.980Z,1.77
2022-08-22T21:49:29.355Z,2.03
2022-08-22T21:51:57.681Z,1.60
2022-08-22T21:54:41.635Z,1.83
2022-08-22T21:57:19.615Z,1.73
2022-08-22T21:59:51.895Z,1.50
2022-08-22T22:02:31.231Z,1.80
2022-08-22T22:05:00.949Z,1.90
2022-08-22T22:07:30.510Z,2.10
2022-08-22T22:10:00.228Z,1.73
2022-08-22T22:12:28.829Z,1.70
2022-08-22T22:14:57.943Z,2.03
2022-08-22T22:17:26.182Z,2.03
2022-08-22T22:19:57.510Z,1.97
2022-08-22T22:22:27.928Z,2.07
2022-08-22T22:24:56.149Z,1.63
2022-08-22T22:27:25.890Z,2.03
2022-08-22T22:29:54.088Z,2.20
2022-08-22T22:32:22.278Z,2.00
2022-08-22T22:34:52.973Z,2.10
2022-08-22T22:37:21.187Z,1.50
2022-08-22T22:39:51.735Z,2.10
2022-08-22T22:42:20.655Z,2.13
2022-08-22T22:44:50.822Z,2.20
2022-08-22T22:47:19.040Z,2.17
2022-08-22T22:49:47.350Z,1.93
2022-08-22T22:52:15.589Z,1.73
2022-08-22T22:54:43.762Z,2.17
2022-08-22T22:57:14.573Z,2.00
2022-08-22T22:59:49.315Z,2.27
2022-08-22T23:02:23.257Z,2.10
2022-08-22T23:04:56.901Z,1.90
2022-08-22T23:07:27.006Z,1.90
2022-08-22T23:09:56.920Z,1.90
2022-08-22T23:12:28.087Z,1.90
2022-08-22T23:14:57.680Z,2.20
2022-08-22T23:17:25.832Z,2.03
2022-08-22T23:19:54.047Z,1.77
2022-08-22T23:22:22.220Z,2.23
2022-08-22T23:24:50.961Z,2.50
2022-08-22T23:27:19.537Z,2.20
2022-08-22T23:29:50.556Z,1.87
2022-08-22T23:37:51.972Z,2.13
2022-08-22T23:40:23.686Z,2.30
2022-08-22T23:42:51.878Z,2.30
2022-08-22T23:45:21.504Z,1.97
2022-08-22T23:47:49.789Z,2.50
2022-08-22T23:50:18.032Z,2.20
2022-08-22T23:52:46.273Z,1.90
2022-08-22T23:55:14.662Z,2.37
2022-08-22T23:57:46.483Z,2.57
